Terminal Aerodrome Forecast
Issued by NWS Charleston, WV

Home | Current Version | Previous Version | Text Only | Print | Product List | Glossary On
Versions: 1 2 3 4 5 6 7 8 9 10 11 12 13 14 15 16 17 18 19 20 21 22 23
000
FTUS41 KRLX 231700
TAFEKN
TAF
KEKN 231720Z 2318/2418 31011G17KT P6SM BKN050
     FM232300 31006KT P6SM FEW080
     FM240100 00000KT P6SM FEW080
     FM240500 00000KT P6SM SKC
     FM241500 00000KT P6SM SCT100=

USA.gov is the U.S. government's official web portal to all federal, state and local government web resources and services.